sensor_id;sensor_type;location;lat;lon;timestamp;pressure;altitude;pressure_sealevel;temperature;humidity
69219;BME280;56232;53.384;-2.732;2022-09-06T00:01:17;100832.51;;;13.09;53.90
69219;BME280;56232;53.384;-2.732;2022-09-06T00:03:43;100831.66;;;14.51;53.30
69219;BME280;56232;53.384;-2.732;2022-09-06T00:06:11;100832.12;;;14.84;53.29
69219;BME280;56232;53.384;-2.732;2022-09-06T00:08:34;100826.19;;;13.92;52.63
69219;BME280;56232;53.384;-2.732;2022-09-06T00:10:59;100817.62;;;15.10;51.97
69219;BME280;56232;53.384;-2.732;2022-09-06T00:13:25;100822.45;;;13.97;52.43
69219;BME280;56232;53.384;-2.732;2022-09-06T00:15:51;100831.60;;;14.97;52.44
69219;BME280;56232;53.384;-2.732;2022-09-06T00:18:16;100832.17;;;13.73;52.76
69219;BME280;56232;53.384;-2.732;2022-09-06T00:20:42;100834.92;;;14.28;51.17
69219;BME280;56232;53.384;-2.732;2022-09-06T00:23:08;100828.38;;;13.64;52.47
69219;BME280;56232;53.384;-2.732;2022-09-06T00:25:33;100830.06;;;13.61;52.69
69219;BME280;56232;53.384;-2.732;2022-09-06T00:28:01;100831.62;;;14.17;52.80
69219;BME280;56232;53.384;-2.732;2022-09-06T00:30:25;100829.83;;;14.83;52.46
69219;BME280;56232;53.384;-2.732;2022-09-06T00:32:51;100829.36;;;13.71;52.16
69219;BME280;56232;53.384;-2.732;2022-09-06T00:35:16;100829.96;;;13.78;50.77
69219;BME280;56232;53.384;-2.732;2022-09-06T00:37:42;100829.47;;;14.74;51.28
69219;BME280;56232;53.384;-2.732;2022-09-06T00:40:08;100828.96;;;13.55;51.83
69219;BME280;56232;53.384;-2.732;2022-09-06T00:42:33;100829.09;;;13.48;51.77
69219;BME280;56232;53.384;-2.732;2022-09-06T00:44:59;100828.62;;;13.45;51.59
69219;BME280;56232;53.384;-2.732;2022-09-06T00:47:24;100826.51;;;13.51;50.93
69219;BME280;56232;53.384;-2.732;2022-09-06T00:49:51;100819.31;;;14.48;49.59
69219;BME280;56232;53.384;-2.732;2022-09-06T00:52:16;100818.71;;;13.66;50.52
69219;BME280;56232;53.384;-2.732;2022-09-06T00:54:42;100813.86;;;14.13;50.94
69219;BME280;56232;53.384;-2.732;2022-09-06T00:57:07;100812.55;;;13.06;51.79
69219;BME280;56232;53.384;-2.732;2022-09-06T00:59:34;100806.15;;;14.05;51.62
69219;BME280;56232;53.384;-2.732;2022-09-06T01:01:58;100804.27;;;13.39;51.88
69219;BME280;56232;53.384;-2.732;2022-09-06T01:04:24;100799.01;;;13.83;52.11
69219;BME280;56232;53.384;-2.732;2022-09-06T01:06:56;100796.83;;;13.72;52.28
69219;BME280;56232;53.384;-2.732;2022-09-06T01:09:22;100791.74;;;13.70;52.13
69219;BME280;56232;53.384;-2.732;2022-09-06T01:11:52;100794.44;;;13.57;52.40
69219;BME280;56232;53.384;-2.732;2022-09-06T01:14:13;100793.69;;;13.55;52.42
69219;BME280;56232;53.384;-2.732;2022-09-06T01:16:37;100792.45;;;13.56;52.32
69219;BME280;56232;53.384;-2.732;2022-09-06T01:19:09;100791.14;;;13.48;52.58
69219;BME280;56232;53.384;-2.732;2022-09-06T01:21:34;100789.78;;;13.47;52.47
69219;BME280;56232;53.384;-2.732;2022-09-06T01:28:42;100783.75;;;13.87;53.05
69219;BME280;56232;53.384;-2.732;2022-09-06T01:31:18;100784.76;;;12.86;53.25
69219;BME280;56232;53.384;-2.732;2022-09-06T01:33:43;100784.45;;;14.09;53.19
69219;BME280;56232;53.384;-2.732;2022-09-06T01:36:00;100782.90;;;13.68;52.95
69219;BME280;56232;53.384;-2.732;2022-09-06T01:38:23;100786.54;;;13.81;53.02
69219;BME280;56232;53.384;-2.732;2022-09-06T01:40:48;100783.70;;;13.86;52.24
69219;BME280;56232;53.384;-2.732;2022-09-06T01:43:20;100780.72;;;13.21;52.74
69219;BME280;56232;53.384;-2.732;2022-09-06T01:45:44;100781.12;;;14.16;52.84
69219;BME280;56232;53.384;-2.732;2022-09-06T01:48:09;100778.69;;;13.70;52.46
69219;BME280;56232;53.384;-2.732;2022-09-06T01:53:05;100783.16;;;13.10;52.51
69219;BME280;56232;53.384;-2.732;2022-09-06T01:55:29;100783.53;;;13.62;50.91
69219;BME280;56232;53.384;-2.732;2022-09-06T01:58:00;100782.62;;;13.55;52.07
69219;BME280;56232;53.384;-2.732;2022-09-06T02:00:14;100783.48;;;13.07;52.20
69219;BME280;56232;53.384;-2.732;2022-09-06T02:02:49;100783.72;;;13.79;52.33
69219;BME280;56232;53.384;-2.732;2022-09-06T02:05:08;100785.29;;;13.33;51.48
69219;BME280;56232;53.384;-2.732;2022-09-06T02:07:32;100780.52;;;13.95;51.08
69219;BME280;56232;53.384;-2.732;2022-09-06T02:10:00;100778.99;;;13.40;51.54
69219;BME280;56232;53.384;-2.732;2022-09-06T02:12:23;100779.17;;;13.45;51.67
69219;BME280;56232;53.384;-2.732;2022-09-06T02:14:51;100781.12;;;14.06;51.57
69219;BME280;56232;53.384;-2.732;2022-09-06T02:17:17;100783.54;;;14.05;52.11
69219;BME280;56232;53.384;-2.732;2022-09-06T02:19:45;100774.72;;;14.03;50.88
69219;BME280;56232;53.384;-2.732;2022-09-06T02:22:07;100774.80;;;13.30;52.02
69219;BME280;56232;53.384;-2.732;2022-09-06T02:24:31;100769.57;;;13.92;52.03
69219;BME280;56232;53.384;-2.732;2022-09-06T02:26:56;100768.69;;;12.75;51.91
69219;BME280;56232;53.384;-2.732;2022-09-06T02:29:22;100768.67;;;13.82;51.77
69219;BME280;56232;53.384;-2.732;2022-09-06T02:31:51;100770.57;;;13.23;51.49
69219;BME280;56232;53.384;-2.732;2022-09-06T02:34:16;100774.97;;;13.84;51.35
69219;BME280;56232;53.384;-2.732;2022-09-06T02:36:39;100777.25;;;13.26;51.65
69219;BME280;56232;53.384;-2.732;2022-09-06T02:39:04;100777.15;;;13.90;52.14
69219;BME280;56232;53.384;-2.732;2022-09-06T02:41:30;100773.90;;;12.91;51.59
69219;BME280;56232;53.384;-2.732;2022-09-06T02:43:55;100769.40;;;13.01;51.78
69219;BME280;56232;53.384;-2.732;2022-09-06T02:46:21;100765.73;;;13.64;51.81
69219;BME280;56232;53.384;-2.732;2022-09-06T02:48:47;100762.28;;;14.16;51.82
69219;BME280;56232;53.384;-2.732;2022-09-06T02:51:12;100756.74;;;14.03;51.72
69219;BME280;56232;53.384;-2.732;2022-09-06T02:53:39;100757.02;;;13.91;51.76
69219;BME280;56232;53.384;-2.732;2022-09-06T02:56:04;100756.81;;;13.80;51.81
69219;BME280;56232;53.384;-2.732;2022-09-06T02:58:29;100752.30;;;12.65;51.39
69219;BME280;56232;53.384;-2.732;2022-09-06T03:00:55;100755.73;;;13.61;51.79
69219;BME280;56232;53.384;-2.732;2022-09-06T03:03:21;100756.34;;;13.02;51.11
69219;BME280;56232;53.384;-2.732;2022-09-06T03:05:46;100760.30;;;13.67;51.46
69219;BME280;56232;53.384;-2.732;2022-09-06T03:08:11;100752.91;;;13.04;51.74
69219;BME280;56232;53.384;-2.732;2022-09-06T03:10:37;100752.73;;;13.55;50.51
69219;BME280;56232;53.384;-2.732;2022-09-06T03:13:03;100753.63;;;13.32;50.00
69219;BME280;56232;53.384;-2.732;2022-09-06T03:15:28;100755.74;;;13.25;51.12
69219;BME280;56232;53.384;-2.732;2022-09-06T03:17:56;100755.30;;;12.81;51.49
69219;BME280;56232;53.384;-2.732;2022-09-06T03:20:20;100753.94;;;13.96;50.94
69219;BME280;56232;53.384;-2.732;2022-09-06T03:22:45;100757.03;;;13.55;51.89
69219;BME280;56232;53.384;-2.732;2022-09-06T03:25:11;100754.01;;;13.78;51.49
69219;BME280;56232;53.384;-2.732;2022-09-06T03:27:37;100750.91;;;14.22;51.40
69219;BME280;56232;53.384;-2.732;2022-09-06T03:30:04;100743.73;;;12.62;51.89
69219;BME280;56232;53.384;-2.732;2022-09-06T03:32:28;100736.94;;;13.62;51.85
69219;BME280;56232;53.384;-2.732;2022-09-06T03:34:54;100741.07;;;12.98;52.15
69219;BME280;56232;53.384;-2.732;2022-09-06T03:37:19;100741.34;;;13.55;51.40
69219;BME280;56232;53.384;-2.732;2022-09-06T03:39:45;100737.24;;;13.88;50.74
69219;BME280;56232;53.384;-2.732;2022-09-06T03:42:11;100740.31;;;13.35;51.58
69219;BME280;56232;53.384;-2.732;2022-09-06T03:44:36;100734.55;;;13.42;51.55
69219;BME280;56232;53.384;-2.732;2022-09-06T03:47:02;100730.80;;;13.51;52.29
69219;BME280;56232;53.384;-2.732;2022-09-06T03:49:27;100726.30;;;13.70;52.25
69219;BME280;56232;53.384;-2.732;2022-09-06T03:51:53;100723.42;;;13.94;51.80
69219;BME280;56232;53.384;-2.732;2022-09-06T03:54:19;100727.84;;;14.56;51.26
69219;BME280;56232;53.384;-2.732;2022-09-06T03:56:44;100725.41;;;14.04;51.72
69219;BME280;56232;53.384;-2.732;2022-09-06T03:59:10;100737.43;;;13.40;51.94
69219;BME280;56232;53.384;-2.732;2022-09-06T04:01:36;100735.35;;;13.49;51.85
69219;BME280;56232;53.384;-2.732;2022-09-06T04:04:02;100733.81;;;14.33;52.06
69219;BME280;56232;53.384;-2.732;2022-09-06T04:06:27;100733.48;;;13.93;51.92
69219;BME280;56232;53.384;-2.732;2022-09-06T04:08:53;100734.76;;;13.88;51.39
69219;BME280;56232;53.384;-2.732;2022-09-06T04:11:18;100732.59;;;13.88;51.85
69219;BME280;56232;53.384;-2.732;2022-09-06T04:13:44;100734.33;;;14.05;51.90
69219;BME280;56232;53.384;-2.732;2022-09-06T04:16:09;100732.76;;;14.19;51.16
69219;BME280;56232;53.384;-2.732;2022-09-06T04:18:35;100737.79;;;14.25;51.02
69219;BME280;56232;53.384;-2.732;2022-09-06T04:21:01;100736.05;;;14.29;51.34
69219;BME280;56232;53.384;-2.732;2022-09-06T04:23:27;100737.59;;;13.93;50.96
69219;BME280;56232;53.384;-2.732;2022-09-06T04:25:53;100735.60;;;13.86;51.18
69219;BME280;56232;53.384;-2.732;2022-09-06T04:28:18;100736.08;;;13.79;51.08
69219;BME280;56232;53.384;-2.732;2022-09-06T04:30:43;100738.72;;;14.30;50.61
69219;BME280;56232;53.384;-2.732;2022-09-06T04:33:09;100734.38;;;14.75;50.88
69219;BME280;56232;53.384;-2.732;2022-09-06T04:35:35;100732.40;;;14.14;51.27
69219;BME280;56232;53.384;-2.732;2022-09-06T04:38:01;100732.44;;;13.70;50.91
69219;BME280;56232;53.384;-2.732;2022-09-06T04:40:26;100734.69;;;14.20;50.08
69219;BME280;56232;53.384;-2.732;2022-09-06T04:42:51;100734.07;;;14.17;50.78
69219;BME280;56232;53.384;-2.732;2022-09-06T04:45:17;100733.91;;;14.14;50.52
69219;BME280;56232;53.384;-2.732;2022-09-06T04:47:43;100730.87;;;14.64;51.51
69219;BME280;56232;53.384;-2.732;2022-09-06T04:50:09;100729.30;;;14.68;51.52
69219;BME280;56232;53.384;-2.732;2022-09-06T04:52:34;100727.72;;;14.77;51.13
69219;BME280;56232;53.384;-2.732;2022-09-06T04:55:00;100729.70;;;13.69;51.09
69219;BME280;56232;53.384;-2.732;2022-09-06T04:57:25;100727.43;;;14.10;50.66
69219;BME280;56232;53.384;-2.732;2022-09-06T04:59:51;100724.01;;;14.71;50.79
69219;BME280;56232;53.384;-2.732;2022-09-06T05:02:17;100715.73;;;14.25;51.50
69219;BME280;56232;53.384;-2.732;2022-09-06T05:04:42;100718.02;;;13.91;51.47
69219;BME280;56232;53.384;-2.732;2022-09-06T05:07:08;100720.91;;;14.01;51.19
69219;BME280;56232;53.384;-2.732;2022-09-06T05:09:34;100713.87;;;14.12;51.42
69219;BME280;56232;53.384;-2.732;2022-09-06T05:12:00;100709.35;;;14.84;51.48
69219;BME280;56232;53.384;-2.732;2022-09-06T05:14:24;100710.53;;;14.44;50.72
69219;BME280;56232;53.384;-2.732;2022-09-06T05:16:50;100715.05;;;14.34;50.53
69219;BME280;56232;53.384;-2.732;2022-09-06T05:19:16;100722.34;;;14.37;51.09
69219;BME280;56232;53.384;-2.732;2022-09-06T05:21:41;100715.54;;;14.29;51.44
69219;BME280;56232;53.384;-2.732;2022-09-06T05:24:07;100705.18;;;14.83;51.10
69219;BME280;56232;53.384;-2.732;2022-09-06T05:26:33;100704.76;;;14.78;51.41
69219;BME280;56232;53.384;-2.732;2022-09-06T05:28:58;100702.51;;;14.06;51.43
69219;BME280;56232;53.384;-2.732;2022-09-06T05:31:25;100703.71;;;14.63;51.55
69219;BME280;56232;53.384;-2.732;2022-09-06T05:33:50;100698.23;;;14.16;51.73
69219;BME280;56232;53.384;-2.732;2022-09-06T05:36:15;100703.48;;;14.34;51.46
69219;BME280;56232;53.384;-2.732;2022-09-06T05:38:41;100702.42;;;15.32;50.90
69219;BME280;56232;53.384;-2.732;2022-09-06T05:41:06;100702.64;;;14.34;51.55
69219;BME280;56232;53.384;-2.732;2022-09-06T05:43:31;100707.17;;;13.95;51.13
69219;BME280;56232;53.384;-2.732;2022-09-06T05:45:58;100707.36;;;14.66;51.33
69219;BME280;56232;53.384;-2.732;2022-09-06T05:48:23;100712.88;;;14.86;51.47
69219;BME280;56232;53.384;-2.732;2022-09-06T05:53:14;100708.58;;;15.28;51.23
69219;BME280;56232;53.384;-2.732;2022-09-06T05:55:41;100708.98;;;15.37;50.73
69219;BME280;56232;53.384;-2.732;2022-09-06T05:58:05;100712.05;;;14.71;50.67
69219;BME280;56232;53.384;-2.732;2022-09-06T06:00:31;100711.20;;;15.51;50.71
69219;BME280;56232;53.384;-2.732;2022-09-06T06:02:56;100711.14;;;15.13;51.02
69219;BME280;56232;53.384;-2.732;2022-09-06T06:05:22;100710.59;;;15.19;50.67
69219;BME280;56232;53.384;-2.732;2022-09-06T06:07:47;100708.41;;;15.18;50.45
69219;BME280;56232;53.384;-2.732;2022-09-06T06:10:12;100702.09;;;15.69;50.91
69219;BME280;56232;53.384;-2.732;2022-09-06T06:12:38;100696.84;;;14.64;50.94
69219;BME280;56232;53.384;-2.732;2022-09-06T06:15:04;100703.20;;;15.27;50.63
69219;BME280;56232;53.384;-2.732;2022-09-06T06:17:28;100704.08;;;15.84;50.52
69219;BME280;56232;53.384;-2.732;2022-09-06T06:19:54;100703.61;;;14.83;50.69
69219;BME280;56232;53.384;-2.732;2022-09-06T06:22:19;100708.30;;;15.00;50.70
69219;BME280;56232;53.384;-2.732;2022-09-06T06:24:45;100702.00;;;15.81;50.29
69219;BME280;56232;53.384;-2.732;2022-09-06T06:27:10;100699.35;;;15.47;48.62
69219;BME280;56232;53.384;-2.732;2022-09-06T06:29:36;100702.89;;;15.39;49.67
69219;BME280;56232;53.384;-2.732;2022-09-06T06:32:02;100696.65;;;15.63;49.90
69219;BME280;56232;53.384;-2.732;2022-09-06T06:34:27;100695.61;;;15.93;50.53
69219;BME280;56232;53.384;-2.732;2022-09-06T06:36:53;100695.60;;;16.18;49.50
69219;BME280;56232;53.384;-2.732;2022-09-06T06:39:18;100697.90;;;15.10;49.15
69219;BME280;56232;53.384;-2.732;2022-09-06T06:41:43;100703.02;;;16.34;49.91
69219;BME280;56232;53.384;-2.732;2022-09-06T06:44:09;100703.19;;;16.72;49.71
69219;BME280;56232;53.384;-2.732;2022-09-06T06:46:36;100706.89;;;16.90;49.50
69219;BME280;56232;53.384;-2.732;2022-09-06T06:49:00;100710.28;;;16.39;48.90
69219;BME280;56232;53.384;-2.732;2022-09-06T06:51:27;100704.52;;;16.73;48.76
69219;BME280;56232;53.384;-2.732;2022-09-06T06:53:51;100698.05;;;16.10;49.32
69219;BME280;56232;53.384;-2.732;2022-09-06T06:56:18;100694.92;;;16.94;49.65
69219;BME280;56232;53.384;-2.732;2022-09-06T06:58:42;100694.33;;;17.14;48.51
69219;BME280;56232;53.384;-2.732;2022-09-06T07:01:08;100691.77;;;17.25;48.35
69219;BME280;56232;53.384;-2.732;2022-09-06T07:03:33;100691.71;;;17.04;49.02
69219;BME280;56232;53.384;-2.732;2022-09-06T07:05:59;100685.27;;;16.65;48.65
69219;BME280;56232;53.384;-2.732;2022-09-06T07:08:24;100687.72;;;16.74;49.27
69219;BME280;56232;53.384;-2.732;2022-09-06T07:10:49;100689.65;;;18.16;49.27
69219;BME280;56232;53.384;-2.732;2022-09-06T07:13:15;100687.92;;;18.17;49.05
69219;BME280;56232;53.384;-2.732;2022-09-06T07:15:41;100683.81;;;17.08;49.27
69219;BME280;56232;53.384;-2.732;2022-09-06T07:18:05;100684.49;;;18.06;49.18
69219;BME280;56232;53.384;-2.732;2022-09-06T07:20:30;100688.26;;;16.93;49.73
69219;BME280;56232;53.384;-2.732;2022-09-06T07:22:58;100692.30;;;16.99;49.87
69219;BME280;56232;53.384;-2.732;2022-09-06T07:25:22;100691.17;;;17.16;48.71
69219;BME280;56232;53.384;-2.732;2022-09-06T07:27:47;100693.48;;;17.23;49.04
69219;BME280;56232;53.384;-2.732;2022-09-06T07:30:13;100692.90;;;17.21;48.74
69219;BME280;56232;53.384;-2.732;2022-09-06T07:32:38;100689.08;;;17.34;48.49
69219;BME280;56232;53.384;-2.732;2022-09-06T07:35:03;100685.34;;;17.37;49.27
69219;BME280;56232;53.384;-2.732;2022-09-06T07:37:28;100690.57;;;17.28;48.50
69219;BME280;56232;53.384;-2.732;2022-09-06T07:39:53;100696.51;;;17.08;47.96
69219;BME280;56232;53.384;-2.732;2022-09-06T07:42:19;100696.21;;;17.96;47.37
69219;BME280;56232;53.384;-2.732;2022-09-06T07:44:44;100688.20;;;18.71;49.14
69219;BME280;56232;53.384;-2.732;2022-09-06T07:47:09;100682.28;;;19.06;48.15
69219;BME280;56232;53.384;-2.732;2022-09-06T07:49:34;100680.26;;;19.12;48.19
69219;BME280;56232;53.384;-2.732;2022-09-06T07:51:59;100682.38;;;18.22;48.29
69219;BME280;56232;53.384;-2.732;2022-09-06T07:54:25;100683.64;;;19.06;47.57
69219;BME280;56232;53.384;-2.732;2022-09-06T07:56:51;100685.32;;;18.51;47.48
69219;BME280;56232;53.384;-2.732;2022-09-06T07:59:16;100685.97;;;18.48;47.72
69219;BME280;56232;53.384;-2.732;2022-09-06T08:01:42;100687.90;;;19.10;48.31
69219;BME280;56232;53.384;-2.732;2022-09-06T08:04:09;100690.92;;;18.83;47.77
69219;BME280;56232;53.384;-2.732;2022-09-06T08:06:34;100693.66;;;18.64;48.02
69219;BME280;56232;53.384;-2.732;2022-09-06T08:08:58;100688.56;;;18.01;48.22
69219;BME280;56232;53.384;-2.732;2022-09-06T08:11:26;100686.07;;;17.96;47.96
69219;BME280;56232;53.384;-2.732;2022-09-06T08:13:50;100688.83;;;18.30;47.12
69219;BME280;56232;53.384;-2.732;2022-09-06T08:16:15;100692.04;;;17.99;48.47
69219;BME280;56232;53.384;-2.732;2022-09-06T08:18:42;100691.75;;;18.65;48.64
69219;BME280;56232;53.384;-2.732;2022-09-06T08:21:07;100688.75;;;17.67;48.51
69219;BME280;56232;53.384;-2.732;2022-09-06T08:23:31;100683.89;;;17.36;48.46
69219;BME280;56232;53.384;-2.732;2022-09-06T08:25:57;100690.53;;;17.83;47.95
69219;BME280;56232;53.384;-2.732;2022-09-06T08:28:23;100693.15;;;18.23;47.85
69219;BME280;56232;53.384;-2.732;2022-09-06T08:30:47;100689.40;;;18.55;47.24
69219;BME280;56232;53.384;-2.732;2022-09-06T08:33:13;100693.55;;;17.18;47.10
69219;BME280;56232;53.384;-2.732;2022-09-06T08:35:39;100693.29;;;17.68;48.13
69219;BME280;56232;53.384;-2.732;2022-09-06T08:38:04;100689.69;;;17.93;47.14
69219;BME280;56232;53.384;-2.732;2022-09-06T08:40:29;100694.44;;;18.77;47.26
69219;BME280;56232;53.384;-2.732;2022-09-06T08:42:55;100692.44;;;18.31;47.48
69219;BME280;56232;53.384;-2.732;2022-09-06T08:45:20;100690.04;;;18.86;47.15
69219;BME280;56232;53.384;-2.732;2022-09-06T08:47:45;100695.03;;;18.28;48.35
69219;BME280;56232;53.384;-2.732;2022-09-06T08:50:11;100693.54;;;17.66;48.25
69219;BME280;56232;53.384;-2.732;2022-09-06T08:52:45;100692.46;;;18.82;47.68
69219;BME280;56232;53.384;-2.732;2022-09-06T08:55:14;100691.84;;;18.23;47.53
69219;BME280;56232;53.384;-2.732;2022-09-06T08:57:35;100682.62;;;18.61;48.50
69219;BME280;56232;53.384;-2.732;2022-09-06T08:59:56;100679.58;;;18.53;48.50
69219;BME280;56232;53.384;-2.732;2022-09-06T09:02:20;100672.85;;;18.87;48.24
69219;BME280;56232;53.384;-2.732;2022-09-06T09:04:46;100672.62;;;18.74;48.23
69219;BME280;56232;53.384;-2.732;2022-09-06T09:07:20;100677.63;;;18.35;47.71
69219;BME280;56232;53.384;-2.732;2022-09-06T09:09:34;100682.82;;;19.34;47.71
69219;BME280;56232;53.384;-2.732;2022-09-06T09:12:00;100687.41;;;18.85;48.07
69219;BME280;56232;53.384;-2.732;2022-09-06T09:14:27;100686.21;;;19.54;47.38
69219;BME280;56232;53.384;-2.732;2022-09-06T09:16:52;100678.24;;;19.61;46.91
69219;BME280;56232;53.384;-2.732;2022-09-06T09:19:16;100675.72;;;19.67;47.62
69219;BME280;56232;53.384;-2.732;2022-09-06T09:21:42;100670.93;;;20.10;47.50
69219;BME280;56232;53.384;-2.732;2022-09-06T09:24:09;100669.02;;;19.52;45.88
69219;BME280;56232;53.384;-2.732;2022-09-06T09:26:37;100678.24;;;19.68;46.20
69219;BME280;56232;53.384;-2.732;2022-09-06T09:29:01;100675.16;;;19.74;46.53
69219;BME280;56232;53.384;-2.732;2022-09-06T09:31:33;100673.91;;;20.04;45.06
69219;BME280;56232;53.384;-2.732;2022-09-06T09:33:48;100670.81;;;19.95;46.14
69219;BME280;56232;53.384;-2.732;2022-09-06T09:36:14;100669.48;;;19.86;46.69
69219;BME280;56232;53.384;-2.732;2022-09-06T09:38:42;100669.87;;;20.32;46.38
69219;BME280;56232;53.384;-2.732;2022-09-06T09:41:07;100668.85;;;19.92;45.29
69219;BME280;56232;53.384;-2.732;2022-09-06T09:43:33;100665.41;;;19.53;43.81
69219;BME280;56232;53.384;-2.732;2022-09-06T09:48:25;100656.03;;;19.60;45.15
69219;BME280;56232;53.384;-2.732;2022-09-06T09:50:48;100657.82;;;20.45;45.36
69219;BME280;56232;53.384;-2.732;2022-09-06T09:53:15;100660.98;;;20.39;45.46
69219;BME280;56232;53.384;-2.732;2022-09-06T09:55:39;100661.04;;;20.30;43.12
69219;BME280;56232;53.384;-2.732;2022-09-06T09:58:05;100658.91;;;20.03;44.17
69219;BME280;56232;53.384;-2.732;2022-09-06T10:00:32;100653.76;;;20.45;43.69
69219;BME280;56232;53.384;-2.732;2022-09-06T10:02:56;100655.78;;;20.58;44.77
69219;BME280;56232;53.384;-2.732;2022-09-06T10:05:20;100660.76;;;20.61;45.05
69219;BME280;56232;53.384;-2.732;2022-09-06T10:07:48;100662.85;;;20.41;43.08
69219;BME280;56232;53.384;-2.732;2022-09-06T10:10:14;100661.73;;;20.18;44.10
69219;BME280;56232;53.384;-2.732;2022-09-06T10:12:39;100657.25;;;21.21;43.05
69219;BME280;56232;53.384;-2.732;2022-09-06T10:15:04;100660.73;;;21.08;43.29
69219;BME280;56232;53.384;-2.732;2022-09-06T10:17:31;100662.74;;;21.30;43.96
69219;BME280;56232;53.384;-2.732;2022-09-06T10:19:54;100661.29;;;21.48;43.26
69219;BME280;56232;53.384;-2.732;2022-09-06T10:22:25;100658.90;;;21.45;44.50
69219;BME280;56232;53.384;-2.732;2022-09-06T10:24:53;100651.75;;;21.54;43.60
69219;BME280;56232;53.384;-2.732;2022-09-06T10:27:10;100654.53;;;23.20;41.27
69219;BME280;56232;53.384;-2.732;2022-09-06T10:29:42;100649.38;;;23.77;40.89
69219;BME280;56232;53.384;-2.732;2022-09-06T10:32:10;100643.56;;;23.45;40.88
69219;BME280;56232;53.384;-2.732;2022-09-06T10:34:40;100645.31;;;23.29;40.09
69219;BME280;56232;53.384;-2.732;2022-09-06T10:37:05;100646.90;;;24.00;41.43
69219;BME280;56232;53.384;-2.732;2022-09-06T10:39:27;100654.34;;;22.77;40.39
69219;BME280;56232;53.384;-2.732;2022-09-06T10:41:54;100655.46;;;23.79;39.68
69219;BME280;56232;53.384;-2.732;2022-09-06T10:44:22;100654.89;;;22.98;40.11
69219;BME280;56232;53.384;-2.732;2022-09-06T10:46:34;100659.30;;;24.00;41.47
69219;BME280;56232;53.384;-2.732;2022-09-06T10:49:00;100656.62;;;23.07;41.48
69219;BME280;56232;53.384;-2.732;2022-09-06T10:51:32;100650.18;;;23.82;41.46
69219;BME280;56232;53.384;-2.732;2022-09-06T10:53:53;100650.46;;;24.32;39.19
69219;BME280;56232;53.384;-2.732;2022-09-06T10:56:19;100646.08;;;23.56;40.82
69219;BME280;56232;53.384;-2.732;2022-09-06T10:58:47;100643.36;;;24.36;39.98
69219;BME280;56232;53.384;-2.732;2022-09-06T11:01:15;100633.01;;;23.24;40.50
69219;BME280;56232;53.384;-2.732;2022-09-06T11:03:36;100634.30;;;24.55;40.34
69219;BME280;56232;53.384;-2.732;2022-09-06T11:06:02;100629.67;;;24.42;39.03
69219;BME280;56232;53.384;-2.732;2022-09-06T11:08:28;100629.56;;;25.59;36.50
69219;BME280;56232;53.384;-2.732;2022-09-06T11:10:51;100623.56;;;24.66;35.61
69219;BME280;56232;53.384;-2.732;2022-09-06T11:13:15;100617.54;;;25.67;37.69
69219;BME280;56232;53.384;-2.732;2022-09-06T11:15:42;100612.74;;;24.73;36.12
69219;BME280;56232;53.384;-2.732;2022-09-06T11:18:10;100618.26;;;25.03;36.60
69219;BME280;56232;53.384;-2.732;2022-09-06T11:20:34;100616.53;;;24.53;36.76
69219;BME280;56232;53.384;-2.732;2022-09-06T11:23:05;100616.87;;;24.08;38.43
69219;BME280;56232;53.384;-2.732;2022-09-06T11:27:51;100610.00;;;24.18;38.17
69219;BME280;56232;53.384;-2.732;2022-09-06T11:30:14;100615.27;;;23.31;36.61
69219;BME280;56232;53.384;-2.732;2022-09-06T11:32:41;100614.86;;;23.69;37.32
69219;BME280;56232;53.384;-2.732;2022-09-06T11:35:07;100605.76;;;24.02;37.88
69219;BME280;56232;53.384;-2.732;2022-09-06T11:37:31;100607.40;;;22.67;39.38
69219;BME280;56232;53.384;-2.732;2022-09-06T11:40:04;100611.46;;;23.39;36.45
69219;BME280;56232;53.384;-2.732;2022-09-06T11:44:51;100598.51;;;23.90;38.20
69219;BME280;56232;53.384;-2.732;2022-09-06T11:49:37;100585.54;;;23.84;36.68
69219;BME280;56232;53.384;-2.732;2022-09-06T11:54:36;100573.24;;;24.53;37.54
69219;BME280;56232;53.384;-2.732;2022-09-06T11:56:56;100576.97;;;24.94;36.82
69219;BME280;56232;53.384;-2.732;2022-09-06T11:59:29;100572.90;;;23.72;36.90
69219;BME280;56232;53.384;-2.732;2022-09-06T12:04:10;100569.50;;;24.84;36.50
69219;BME280;56232;53.384;-2.732;2022-09-06T12:06:38;100558.92;;;24.82;35.32
69219;BME280;56232;53.384;-2.732;2022-09-06T12:09:06;100552.61;;;25.10;34.62
69219;BME280;56232;53.384;-2.732;2022-09-06T12:11:32;100551.02;;;25.39;35.51
69219;BME280;56232;53.384;-2.732;2022-09-06T12:13:54;100545.91;;;25.50;35.24
69219;BME280;56232;53.384;-2.732;2022-09-06T12:16:17;100547.67;;;25.36;34.80
69219;BME280;56232;53.384;-2.732;2022-09-06T12:18:52;100539.73;;;24.75;34.98
69219;BME280;56232;53.384;-2.732;2022-09-06T12:21:09;100548.98;;;24.02;34.52
69219;BME280;56232;53.384;-2.732;2022-09-06T12:23:41;100542.40;;;23.79;36.03
69219;BME280;56232;53.384;-2.732;2022-09-06T12:26:01;100535.90;;;23.24;37.72
69219;BME280;56232;53.384;-2.732;2022-09-06T12:28:31;100535.22;;;24.46;37.61
69219;BME280;56232;53.384;-2.732;2022-09-06T12:30:50;100529.66;;;24.33;37.61
69219;BME280;56232;53.384;-2.732;2022-09-06T12:33:21;100527.54;;;25.08;35.90
69219;BME280;56232;53.384;-2.732;2022-09-06T12:35:42;100522.66;;;25.29;36.86
69219;BME280;56232;53.384;-2.732;2022-09-06T12:38:12;100524.42;;;25.43;34.87
69219;BME280;56232;53.384;-2.732;2022-09-06T12:40:35;100508.76;;;25.10;36.45
69219;BME280;56232;53.384;-2.732;2022-09-06T12:42:58;100508.42;;;23.85;36.14
69219;BME280;56232;53.384;-2.732;2022-09-06T12:45:24;100507.12;;;24.68;37.32
69219;BME280;56232;53.384;-2.732;2022-09-06T12:47:49;100509.22;;;24.39;37.15
69219;BME280;56232;53.384;-2.732;2022-09-06T12:50:16;100502.09;;;24.28;36.79
69219;BME280;56232;53.384;-2.732;2022-09-06T12:52:45;100503.53;;;24.98;36.71
69219;BME280;56232;53.384;-2.732;2022-09-06T12:55:13;100496.96;;;24.93;36.70